Terminal Aerodrome Forecast
Issued by NWS

Home | Current Version | Previous Version | Text Only | Print | Product List | Glossary On
Versions: 1 2 3 4 5 6 7 8 9 10 11 12 13 14
000
FTUS45 KFGZ 241720
TAFPRC
TAF
KPRC 241720Z 2418/2518 18005KT P6SM SCT110
     FM241900 24010KT P6SM VCTS SCT080CB BKN110
     FM250000 24007KT P6SM SCT080 BKN110
     FM250200 20006KT P6SM SCT110=

USA.gov is the U.S. government's official web portal to all federal, state and local government web resources and services.